Time;durP1;ratioP1;P1;durP2;ratioP2;P2;SDS_P1;SDS_P2;PMS_P1;PMS_P2;Temp;Humidity;BMP_temperature;BMP_pressure;BME280_temperature;BME280_humidity;BME280_pressure;Samples;Min_cycle;Max_cycle;Signal;HPM_P1;HPM_P2
2021/09/13 16:41:13;;;;;;;18.57;8.58;;;;;;;19.61;61.93;99325.73;1798825;78;23331;-57
2021/09/13 16:43:42;;;;;;;14.35;8.20;;;;;;;19.60;63.43;99326.70;1774180;80;21455;-59
2021/09/13 16:46:08;;;;;;;17.52;8.70;;;;;;;19.65;63.51;99331.16;1767939;80;21458;-58
2021/09/13 16:48:36;;;;;;;15.85;8.35;;;;;;;19.67;63.65;99331.03;1748736;80;20985;-58
2021/09/13 16:51:05;;;;;;;10.53;8.78;;;;;;;19.62;63.77;99331.91;1745547;81;21534;-59
2021/09/13 16:53:33;;;;;;;11.65;9.08;;;;;;;19.58;63.71;99337.15;1747374;80;21530;-59
2021/09/13 16:56:04;;;;;;;12.60;8.55;;;;;;;19.53;63.75;99334.02;1756804;79;21870;-59
2021/09/13 16:58:31;;;;;;;13.70;9.25;;;;;;;19.48;63.90;99339.76;1717418;81;21688;-59
2021/09/13 17:00:58;;;;;;;17.55;9.83;;;;;;;19.42;63.96;99338.45;1721052;80;21553;-59
2021/09/13 17:03:25;;;;;;;15.40;10.38;;;;;;;19.39;63.98;99338.70;1744723;81;21544;-59
2021/09/13 17:05:52;;;;;;;18.23;10.90;;;;;;;19.39;63.80;99346.70;1747477;81;21438;-59
2021/09/13 17:08:18;;;;;;;14.47;9.80;;;;;;;19.35;63.90;99348.44;1754430;80;21427;-59
2021/09/13 17:10:47;;;;;;;19.15;9.78;;;;;;;19.37;64.42;99349.98;1743440;80;21525;-58
2021/09/13 17:13:14;;;;;;;14.60;10.18;;;;;;;19.42;63.68;99352.25;1744959;81;21531;-59
2021/09/13 17:15:41;;;;;;;19.17;9.95;;;;;;;19.43;63.38;99357.45;1743008;81;21483;-58
2021/09/13 17:18:08;;;;;;;22.58;10.48;;;;;;;19.42;63.08;99357.12;1716493;81;21465;-58
2021/09/13 17:20:34;;;;;;;14.23;9.03;;;;;;;19.42;63.08;99357.12;1727167;81;21534;-59
2021/09/13 17:23:02;;;;;;;16.67;9.68;;;;;;;19.41;62.55;99358.58;1747695;81;21735;-58
2021/09/13 17:25:29;;;;;;;18.05;9.53;;;;;;;19.33;62.96;99355.72;1747536;81;21408;-58
2021/09/13 17:27:55;;;;;;;14.60;9.15;;;;;;;19.25;63.68;99358.53;1747398;81;21475;-58
2021/09/13 17:30:22;;;;;;;20.23;9.50;;;;;;;19.25;63.68;99358.53;1744974;80;21573;-58
2021/09/13 17:32:51;;;;;;;15.40;9.07;;;;;;;19.17;63.58;99362.30;1742788;80;21561;-58
2021/09/13 17:35:19;;;;;;;17.20;8.48;;;;;;;19.08;63.76;99364.42;1735484;80;22148;-59
2021/09/13 17:37:46;;;;;;;;;;;;;;;19.07;64.30;99365.38;1740715;80;21538;-58
2021/09/13 17:40:13;;;;;;;12.25;9.10;;;;;;;19.12;64.33;99368.98;1738255;81;20488;-58
2021/09/13 17:42:40;;;;;;;14.90;9.30;;;;;;;19.06;64.20;99362.34;1760451;81;20975;-58
2021/09/13 17:45:08;;;;;;;13.65;9.38;;;;;;;19.01;64.36;99361.90;1682849;83;21543;-58
2021/09/13 17:47:35;;;;;;;18.98;10.13;;;;;;;18.95;64.54;99362.38;1705171;82;21858;-58
2021/09/13 17:50:03;;;;;;;12.43;9.05;;;;;;;18.89;64.67;99365.06;1705032;83;21424;-58
2021/09/13 17:52:29;;;;;;;14.35;10.18;;;;;;;18.86;64.74;99370.66;1687235;84;20946;-58
2021/09/13 17:54:57;;;;;;;16.42;10.55;;;;;;;18.79;64.84;99368.94;1730377;81;21511;-58
2021/09/13 17:57:23;;;;;;;11.78;8.65;;;;;;;18.73;64.95;99369.44;1731835;82;21597;-59
2021/09/13 17:59:50;;;;;;;18.52;10.28;;;;;;;18.81;65.37;99372.34;1727951;82;21475;-58
2021/09/13 18:02:17;;;;;;;13.32;9.13;;;;;;;18.81;65.37;99372.34;1730798;81;21480;-60
2021/09/13 18:04:44;;;;;;;11.53;8.67;;;;;;;18.76;65.26;99374.98;1725394;81;21638;-60
2021/09/13 18:07:10;;;;;;;13.70;8.88;;;;;;;18.70;65.38;99375.50;1704684;82;21747;-59
2021/09/13 18:09:39;;;;;;;12.47;8.58;;;;;;;18.63;65.44;99375.16;1703878;82;21651;-59
2021/09/13 18:12:07;;;;;;;12.33;8.85;;;;;;;18.57;65.56;99382.29;1733038;82;21768;-58
2021/09/13 18:14:33;;;;;;;12.07;8.97;;;;;;;18.47;65.81;99384.84;1732387;81;21506;-59
2021/09/13 18:17:00;;;;;;;12.43;8.20;;;;;;;18.41;65.96;99378.69;1727833;82;21440;-59
2021/09/13 18:19:27;;;;;;;12.78;7.92;;;;;;;18.40;66.57;99381.84;1726191;81;21558;-60
2021/09/13 18:21:55;;;;;;;9.80;8.58;;;;;;;18.46;66.54;99388.00;1714448;82;21467;-57
2021/09/13 18:24:22;;;;;;;10.72;9.20;;;;;;;18.40;66.43;99378.31;1727011;81;21510;-61
2021/09/13 18:26:48;;;;;;;14.30;8.78;;;;;;;18.34;66.69;99381.47;1732525;80;21427;-59
2021/09/13 18:29:15;;;;;;;10.82;8.23;;;;;;;18.20;67.15;99386.07;1745031;81;20955;-58
2021/09/13 18:31:46;;;;;;;16.67;9.55;;;;;;;18.20;67.15;99386.07;1733117;81;21527;-58
2021/09/13 18:34:10;;;;;;;16.48;9.23;;;;;;;18.13;67.14;99395.98;1727040;80;21562;-58
2021/09/13 18:36:36;;;;;;;14.63;8.73;;;;;;;18.05;67.36;99388.11;1724016;80;22122;-58
2021/09/13 18:39:03;;;;;;;10.30;8.33;;;;;;;18.06;67.90;99396.93;1722804;80;21399;-58
2021/09/13 18:41:30;;;;;;;14.45;8.98;;;;;;;18.09;67.77;99391.38;1742096;81;21609;-57
2021/09/13 18:43:59;;;;;;;15.18;9.25;;;;;;;18.03;67.61;99395.86;1756445;81;21419;-57
2021/09/13 18:46:27;;;;;;;13.65;9.80;;;;;;;17.96;67.62;99399.46;1763018;81;21518;-57
2021/09/13 18:48:53;;;;;;;13.70;10.13;;;;;;;17.92;67.54;99395.84;1744337;80;22127;-57
2021/09/13 18:51:24;;;;;;;12.43;9.75;;;;;;;17.84;67.86;99392.41;1737846;80;21598;-56
2021/09/13 18:53:52;;;;;;;17.73;9.95;;;;;;;17.76;68.08;99394.30;1736872;80;21509;-57
2021/09/13 18:56:18;;;;;;;18.45;11.48;;;;;;;17.75;68.77;99393.95;1739982;80;21455;-57
2021/09/13 18:58:45;;;;;;;16.12;11.48;;;;;;;17.78;68.86;99399.05;1757212;80;21460;-57
2021/09/13 19:01:13;;;;;;;15.43;12.37;;;;;;;17.76;68.93;99404.10;1722135;81;21706;-57
2021/09/13 19:03:39;;;;;;;19.35;14.30;;;;;;;17.66;68.89;99401.30;1743800;80;28689;-57
2021/09/13 19:06:08;;;;;;;21.75;14.38;;;;;;;17.60;69.22;99409.27;1746502;81;21518;-57
2021/09/13 19:08:36;;;;;;;22.00;14.05;;;;;;;17.57;69.46;99411.30;1729236;81;21582;-57
2021/09/13 19:11:03;;;;;;;27.45;15.05;;;;;;;17.59;69.97;99406.22;1745975;81;20987;-58
2021/09/13 19:13:30;;;;;;;27.67;16.40;;;;;;;17.66;70.11;99414.59;1749051;80;22093;-57
2021/09/13 19:15:58;;;;;;;21.95;16.48;;;;;;;17.65;70.14;99414.22;1762645;81;21022;-59
2021/09/13 19:18:27;;;;;;;27.87;17.92;;;;;;;17.60;70.35;99414.58;1735943;80;21494;-60
2021/09/13 19:20:56;;;;;;;25.92;18.73;;;;;;;17.57;70.42;99415.29;1736765;80;21521;-58
2021/09/13 19:23:25;;;;;;;24.98;17.80;;;;;;;17.52;70.63;99419.64;1717399;83;21513;-58
2021/09/13 19:25:52;;;;;;;25.68;18.25;;;;;;;17.54;71.20;99418.16;1746833;80;21467;-58
2021/09/13 19:28:19;;;;;;;31.03;19.17;;;;;;;17.63;71.18;99418.34;1768286;80;21415;-57
2021/09/13 19:30:45;;;;;;;30.92;19.62;;;;;;;17.64;71.11;99423.17;1758090;80;21661;-57
2021/09/13 19:33:12;;;;;;;29.65;20.88;;;;;;;17.61;71.22;99424.27;1747232;80;20944;-57
2021/09/13 19:35:39;;;;;;;31.47;21.63;;;;;;;17.60;71.32;99425.70;1747532;81;20938;-57
2021/09/13 19:38:05;;;;;;;37.70;20.45;;;;;;;17.57;71.51;99423.27;1747266;81;22129;-57
2021/09/13 19:40:32;;;;;;;26.80;20.37;;;;;;;17.58;71.84;99424.48;1745684;81;21480;-57
2021/09/13 19:43:01;;;;;;;31.68;21.15;;;;;;;17.65;71.79;99429.70;1746247;80;21424;-57
2021/09/13 19:45:27;;;;;;;36.75;22.17;;;;;;;17.63;71.85;99427.65;1747310;81;21555;-57
2021/09/13 19:47:56;;;;;;;35.98;22.95;;;;;;;17.59;72.02;99433.30;1747339;81;21399;-58
2021/09/13 19:50:23;;;;;;;35.98;22.62;;;;;;;17.54;72.16;99432.33;1747354;81;25597;-57
2021/09/13 19:52:49;;;;;;;35.55;23.52;;;;;;;17.50;72.41;99435.69;1742125;81;21423;-57
2021/09/13 19:55:17;;;;;;;37.48;23.02;;;;;;;17.55;72.97;99437.16;1733495;81;21558;-57
2021/09/13 19:57:43;;;;;;;37.40;23.55;;;;;;;17.60;72.97;99436.34;1743872;81;20990;-57
2021/09/13 20:00:11;;;;;;;36.00;23.25;;;;;;;17.56;73.01;99433.06;1741226;82;21438;-57
2021/09/13 20:02:40;;;;;;;32.05;23.62;;;;;;;17.52;73.44;99435.59;1741098;81;21658;-58
2021/09/13 20:05:08;;;;;;;30.37;21.17;;;;;;;17.49;73.50;99441.12;1749692;81;21438;-58
2021/09/13 20:07:35;;;;;;;31.10;20.90;;;;;;;17.49;73.82;99440.62;1753553;81;21538;-58
2021/09/13 20:10:04;;;;;;;27.85;20.68;;;;;;;17.56;73.85;99441.52;1762730;81;21400;-57
2021/09/13 20:12:31;;;;;;;29.32;20.68;;;;;;;17.53;73.82;99449.22;1762982;81;21539;-57
2021/09/13 20:14:58;;;;;;;29.10;20.60;;;;;;;17.47;73.94;99447.88;1759367;79;21982;-58
2021/09/13 20:17:25;;;;;;;25.10;19.70;;;;;;;17.41;74.15;99442.18;1760553;81;21406;-57
2021/09/13 20:19:53;;;;;;;26.97;18.75;;;;;;;17.40;74.46;99449.77;1753891;81;21491;-57
2021/09/13 20:22:20;;;;;;;24.67;17.90;;;;;;;17.46;74.71;99456.83;1747115;81;21514;-57
2021/09/13 20:24:47;;;;;;;22.85;18.67;;;;;;;17.45;74.94;99459.59;1747306;81;21502;-57
2021/09/13 20:27:14;;;;;;;26.85;18.15;;;;;;;17.40;74.92;99457.75;1745410;81;22021;-57
2021/09/13 20:29:41;;;;;;;24.37;17.42;;;;;;;17.33;74.97;99460.02;1745652;80;21620;-57
2021/09/13 20:32:08;;;;;;;19.60;15.15;;;;;;;17.34;75.45;99462.19;1746747;81;20958;-57
2021/09/13 20:34:35;;;;;;;21.70;16.05;;;;;;;17.39;75.79;99467.53;1747328;81;21614;-56
2021/09/13 20:37:03;;;;;;;21.85;15.85;;;;;;;17.40;75.75;99464.39;1746650;80;21408;-57
2021/09/13 20:39:30;;;;;;;18.92;15.70;;;;;;;17.34;75.89;99465.69;1743266;81;22022;-57
2021/09/13 20:41:56;;;;;;;20.52;14.63;;;;;;;17.30;75.92;99466.39;1736791;82;21007;-56
2021/09/13 20:44:23;;;;;;;16.50;13.70;;;;;;;17.30;76.30;99466.88;1735598;82;21533;-56
2021/09/13 20:46:50;;;;;;;18.77;13.85;;;;;;;17.33;76.53;99470.66;1720397;82;21663;-56
2021/09/13 20:49:17;;;;;;;20.57;14.68;;;;;;;17.32;76.36;99467.62;1739210;80;21538;-56
2021/09/13 20:51:44;;;;;;;19.02;14.15;;;;;;;17.26;76.14;99470.24;1714974;80;22015;-57
2021/09/13 20:54:12;;;;;;;16.48;13.20;;;;;;;17.21;76.11;99474.20;1721966;82;21456;-57
2021/09/13 20:56:41;;;;;;;17.02;13.15;;;;;;;17.19;76.37;99473.46;1741910;82;21455;-57
2021/09/13 20:59:09;;;;;;;17.50;13.55;;;;;;;17.21;76.53;99475.03;1741452;82;21629;-58
2021/09/13 21:01:36;;;;;;;17.67;14.70;;;;;;;17.20;76.44;99474.69;1742077;82;21486;-58
2021/09/13 21:04:04;;;;;;;;;;;;;;;17.14;76.65;99479.12;1745769;81;22091;-60
2021/09/13 21:06:31;;;;;;;20.17;13.78;;;;;;;17.07;77.08;99486.67;1741054;80;20481;-57
2021/09/13 21:08:58;;;;;;;15.38;12.37;;;;;;;17.05;76.98;99485.94;1741627;82;21431;-56
2021/09/13 21:11:25;;;;;;;16.45;13.18;;;;;;;17.12;77.25;99487.20;1741385;82;21531;-56
2021/09/13 21:13:52;;;;;;;16.17;13.48;;;;;;;17.16;77.59;99488.28;1742064;80;21689;-56
2021/09/13 21:16:19;;;;;;;15.78;13.72;;;;;;;17.11;77.36;99487.30;1741824;82;21780;-56
2021/09/13 21:18:51;;;;;;;20.32;12.47;;;;;;;17.08;77.44;99491.50;1748235;81;20982;-56
2021/09/13 21:21:18;;;;;;;15.88;13.18;;;;;;;17.11;77.92;99496.11;1744124;80;21557;-56
2021/09/13 21:23:46;;;;;;;13.45;12.07;;;;;;;17.22;77.89;99498.48;1735585;82;21475;-56
2021/09/13 21:26:13;;;;;;;15.58;12.63;;;;;;;17.25;77.85;99490.27;1736726;80;21518;-57
2021/09/13 21:28:41;;;;;;;15.78;12.98;;;;;;;17.24;77.83;99492.09;1711881;82;21816;-56
2021/09/13 21:31:09;;;;;;;17.15;12.58;;;;;;;17.23;77.71;99493.53;1702917;83;21558;-56
2021/09/13 21:33:36;;;;;;;13.20;11.13;;;;;;;17.26;77.89;99492.83;1704666;83;21499;-56
2021/09/13 21:36:04;;;;;;;16.07;11.70;;;;;;;17.33;77.84;99495.90;1704455;83;21777;-56
2021/09/13 21:38:30;;;;;;;14.83;11.60;;;;;;;17.36;77.62;99502.30;1730821;82;21428;-56
2021/09/13 21:40:57;;;;;;;18.02;11.90;;;;;;;17.32;77.66;99500.83;1732073;81;21820;-57
2021/09/13 21:43:23;;;;;;;13.35;11.60;;;;;;;17.30;77.64;99503.59;1725717;82;20919;-57
2021/09/13 21:45:51;;;;;;;17.60;11.30;;;;;;;17.32;77.76;99504.81;1725769;81;21432;-57
2021/09/13 21:48:18;;;;;;;15.32;10.60;;;;;;;17.39;77.75;99507.40;1718667;82;21499;-56
2021/09/13 21:50:46;;;;;;;14.55;11.40;;;;;;;17.41;77.72;99501.48;1706625;82;21559;-57
2021/09/13 21:53:13;;;;;;;14.03;11.57;;;;;;;17.40;77.70;99501.11;1717408;82;21439;-57
2021/09/13 21:55:39;;;;;;;12.47;11.10;;;;;;;17.39;77.65;99507.89;1698449;82;21436;-58
2021/09/13 21:58:06;;;;;;;11.28;9.83;;;;;;;17.47;77.73;99500.19;1722725;82;21436;-57
2021/09/13 22:00:32;;;;;;;14.45;10.70;;;;;;;17.47;77.73;99500.19;1721958;82;21453;-57
2021/09/13 22:02:59;;;;;;;11.78;10.53;;;;;;;17.51;77.66;99496.34;1725735;82;21523;-57
2021/09/13 22:05:26;;;;;;;15.28;10.95;;;;;;;17.47;77.46;99499.70;1725758;82;22005;-57
2021/09/13 22:07:52;;;;;;;11.78;9.78;;;;;;;17.45;77.42;99504.28;1725982;82;21416;-57
2021/09/13 22:10:19;;;;;;;12.53;9.83;;;;;;;17.44;77.59;99509.70;1723853;82;21499;-57
2021/09/13 22:12:47;;;;;;;11.57;9.80;;;;;;;17.51;77.60;99508.30;1725778;82;21484;-56
2021/09/13 22:15:13;;;;;;;11.40;10.38;;;;;;;17.51;77.52;99511.80;1707856;82;21482;-56
2021/09/13 22:17:41;;;;;;;11.57;10.32;;;;;;;17.46;77.45;99513.09;1696445;84;21431;-57
2021/09/13 22:20:09;;;;;;;12.90;10.30;;;;;;;17.40;77.61;99511.73;1710432;82;21435;-56
2021/09/13 22:22:36;;;;;;;11.00;9.65;;;;;;;17.43;77.74;99506.70;1696736;84;21456;-56
2021/09/13 22:25:05;;;;;;;10.75;9.15;;;;;;;17.50;77.73;99515.43;1696354;83;21543;-56
2021/09/13 22:27:32;;;;;;;12.07;9.38;;;;;;;17.53;77.51;99509.03;1696664;84;21034;-56
2021/09/13 22:29:59;;;;;;;12.75;9.95;;;;;;;17.50;77.38;99510.12;1698260;82;21855;-56
2021/09/13 22:32:25;;;;;;;11.48;9.15;;;;;;;17.46;77.36;99509.11;1696399;83;21487;-56
2021/09/13 22:34:52;;;;;;;9.73;8.65;;;;;;;17.47;77.52;99514.31;1684286;82;21467;-56
2021/09/13 22:37:18;;;;;;;9.78;8.60;;;;;;;17.56;77.46;99514.13;1681743;83;21565;-57
2021/09/13 22:39:47;;;;;;;12.28;9.20;;;;;;;17.56;77.29;99509.30;1682268;82;21529;-57
2021/09/13 22:42:14;;;;;;;11.38;9.80;;;;;;;17.51;77.26;99506.48;1707526;82;21861;-57
2021/09/13 22:44:41;;;;;;;9.83;8.83;;;;;;;17.43;78.01;99500.05;1704403;83;21577;-56
2021/09/13 22:47:09;;;;;;;13.18;8.23;;;;;;;17.43;78.01;99500.05;1704340;83;21423;-57
2021/09/13 22:49:36;;;;;;;10.67;9.50;;;;;;;17.50;77.41;99499.97;1704430;82;21475;-57
2021/09/13 22:52:03;;;;;;;10.65;9.50;;;;;;;17.47;77.21;99497.53;1706341;82;22358;-57
2021/09/13 22:54:30;;;;;;;9.88;8.98;;;;;;;17.42;77.13;99497.02;1704388;83;21853;-57
2021/09/13 22:56:56;;;;;;;9.73;8.03;;;;;;;17.34;77.06;99490.94;1719376;82;20967;-57
2021/09/13 22:59:23;;;;;;;9.35;8.38;;;;;;;17.32;77.30;99495.52;1733782;82;20967;-57
2021/09/13 23:01:50;;;;;;;10.20;8.87;;;;;;;17.35;77.19;99503.73;1718333;82;21563;-56
2021/09/13 23:04:17;;;;;;;17.02;9.50;;;;;;;17.30;77.09;99500.09;1734127;82;21483;-58
2021/09/13 23:06:44;;;;;;;10.88;9.35;;;;;;;17.22;77.05;99509.95;1733934;82;21697;-57
2021/09/13 23:09:12;;;;;;;9.43;8.13;;;;;;;17.13;77.10;99504.81;1733838;81;21408;-57
2021/09/13 23:11:42;;;;;;;10.18;8.23;;;;;;;17.11;77.35;99507.23;1733767;82;21496;-57
2021/09/13 23:14:09;;;;;;;9.03;7.97;;;;;;;17.13;77.41;99508.80;1731754;82;21456;-57
2021/09/13 23:16:38;;;;;;;11.33;8.50;;;;;;;17.10;77.19;99505.06;1733661;82;21550;-57
2021/09/13 23:19:06;;;;;;;10.88;8.23;;;;;;;17.01;77.17;99511.03;1727401;82;22099;-57
2021/09/13 23:21:33;;;;;;;8.78;7.95;;;;;;;16.91;77.32;99512.63;1706722;82;21444;-57
2021/09/13 23:24:04;;;;;;;10.20;7.83;;;;;;;16.88;77.71;99518.17;1716744;82;20987;-57
2021/09/13 23:26:30;;;;;;;8.40;7.70;;;;;;;16.89;77.73;99516.71;1704692;82;20966;-57
2021/09/13 23:28:58;;;;;;;9.60;8.58;;;;;;;16.85;77.71;99513.91;1704198;83;21519;-57
2021/09/13 23:31:24;;;;;;;11.53;8.20;;;;;;;16.79;77.83;99516.98;1721799;82;21547;-57
2021/09/13 23:33:51;;;;;;;11.33;8.08;;;;;;;16.71;77.77;99516.19;1724791;82;20986;-58
2021/09/13 23:36:18;;;;;;;13.10;8.47;;;;;;;16.71;78.06;99519.33;1704804;83;21511;-58
2021/09/13 23:38:48;;;;;;;9.45;7.58;;;;;;;16.76;77.87;99521.66;1704336;83;21427;-58
2021/09/13 23:41:14;;;;;;;8.28;7.47;;;;;;;16.74;77.88;99523.95;1704406;83;21481;-58
2021/09/13 23:43:42;;;;;;;9.33;8.40;;;;;;;16.69;77.80;99524.74;1706803;82;21779;-58
2021/09/13 23:46:09;;;;;;;8.00;7.25;;;;;;;16.62;77.82;99527.45;1732568;82;21605;-57
2021/09/13 23:48:38;;;;;;;10.25;7.92;;;;;;;16.61;77.94;99526.22;1704147;83;21484;-57
2021/09/13 23:51:05;;;;;;;11.95;8.30;;;;;;;16.61;77.93;99525.73;1703660;83;21618;-57
2021/09/13 23:53:32;;;;;;;9.95;8.53;;;;;;;16.56;77.92;99519.92;1704147;83;21431;-58
2021/09/13 23:56:00;;;;;;;8.30;7.60;;;;;;;16.50;77.93;99525.18;1724721;82;22017;-56
2021/09/13 23:58:27;;;;;;;10.95;7.67;;;;;;;16.39;78.12;99531.70;1733516;82;21005;-56
